Terminal Aerodrome Forecast
Issued by NWS Des Moines, IA

Home | Current Version | Previous Version | Text Only | Print | Product List | Glossary On
Versions: 1 2 3 4 5 6 7 8 9 10 11 12 13 14 15 16 17 18 19 20 21 22 23 24 25 26 27 28 29 30 31 32 33 34 35 36 37 38 39 40 41 42 43 44 45 46 47 48 49
000
FTUS43 KDMX 251358 AAB
TAFDSM
TAF AMD
KDSM 251358Z 2514/2612 22013G19KT P6SM VCSH BKN010 OVC060
     FM251500 22014G19KT P6SM -RA FEW009 SCT030 BKN100
     FM251700 20017G28KT P6SM SCT040 BKN150
     FM260200 19013KT P6SM VCTS BKN040CB
     FM260800 18006KT 6SM BR VCSH BKN035=

USA.gov is the U.S. government's official web portal to all federal, state and local government web resources and services.